sensor_id;sensor_type;location;lat;lon;timestamp;P1;durP1;ratioP1;P2;durP2;ratioP2
75061;SDS011;63641;46.526;24.612;2023-12-20T00:02:16;73.05;;;17.67;;
75061;SDS011;63641;46.526;24.612;2023-12-20T00:04:43;102.28;;;20.98;;
75061;SDS011;63641;46.526;24.612;2023-12-20T00:07:10;133.55;;;20.08;;
75061;SDS011;63641;46.526;24.612;2023-12-20T00:09:37;45.13;;;18.75;;
75061;SDS011;63641;46.526;24.612;2023-12-20T00:12:04;32.00;;;19.00;;
75061;SDS011;63641;46.526;24.612;2023-12-20T00:14:31;33.28;;;18.92;;
75061;SDS011;63641;46.526;24.612;2023-12-20T00:16:58;38.20;;;18.42;;
75061;SDS011;63641;46.526;24.612;2023-12-20T00:19:25;57.45;;;18.98;;
75061;SDS011;63641;46.526;24.612;2023-12-20T00:21:52;49.75;;;17.60;;
75061;SDS011;63641;46.526;24.612;2023-12-20T00:24:19;38.88;;;17.73;;
75061;SDS011;63641;46.526;24.612;2023-12-20T00:26:46;27.17;;;17.83;;
75061;SDS011;63641;46.526;24.612;2023-12-20T00:29:13;70.10;;;17.48;;
75061;SDS011;63641;46.526;24.612;2023-12-20T00:31:41;45.28;;;17.70;;
75061;SDS011;63641;46.526;24.612;2023-12-20T00:34:07;50.88;;;17.60;;
75061;SDS011;63641;46.526;24.612;2023-12-20T00:36:35;67.22;;;18.27;;
75061;SDS011;63641;46.526;24.612;2023-12-20T00:39:03;83.70;;;18.00;;
75061;SDS011;63641;46.526;24.612;2023-12-20T00:41:29;31.27;;;16.90;;
75061;SDS011;63641;46.526;24.612;2023-12-20T00:43:57;34.97;;;16.38;;
75061;SDS011;63641;46.526;24.612;2023-12-20T00:46:24;56.10;;;17.48;;
75061;SDS011;63641;46.526;24.612;2023-12-20T00:48:51;41.42;;;15.75;;
75061;SDS011;63641;46.526;24.612;2023-12-20T00:51:18;38.20;;;16.17;;
75061;SDS011;63641;46.526;24.612;2023-12-20T00:53:45;39.55;;;15.40;;
75061;SDS011;63641;46.526;24.612;2023-12-20T00:56:16;29.90;;;14.93;;
75061;SDS011;63641;46.526;24.612;2023-12-20T00:58:43;26.85;;;16.15;;
75061;SDS011;63641;46.526;24.612;2023-12-20T01:01:10;31.02;;;15.90;;
75061;SDS011;63641;46.526;24.612;2023-12-20T01:03:37;24.05;;;14.70;;
75061;SDS011;63641;46.526;24.612;2023-12-20T01:06:05;23.63;;;15.43;;
75061;SDS011;63641;46.526;24.612;2023-12-20T01:08:32;43.92;;;15.70;;
75061;SDS011;63641;46.526;24.612;2023-12-20T01:11:03;47.30;;;15.60;;
75061;SDS011;63641;46.526;24.612;2023-12-20T01:13:32;36.85;;;15.48;;
75061;SDS011;63641;46.526;24.612;2023-12-20T01:15:59;43.72;;;17.15;;
75061;SDS011;63641;46.526;24.612;2023-12-20T01:18:26;141.27;;;19.27;;
75061;SDS011;63641;46.526;24.612;2023-12-20T01:20:53;65.20;;;15.27;;
75061;SDS011;63641;46.526;24.612;2023-12-20T01:23:20;144.63;;;17.67;;
75061;SDS011;63641;46.526;24.612;2023-12-20T01:25:46;25.45;;;15.57;;
75061;SDS011;63641;46.526;24.612;2023-12-20T01:28:13;24.95;;;15.10;;
75061;SDS011;63641;46.526;24.612;2023-12-20T01:30:40;132.85;;;18.23;;
75061;SDS011;63641;46.526;24.612;2023-12-20T01:33:07;114.30;;;16.50;;
75061;SDS011;63641;46.526;24.612;2023-12-20T01:35:34;84.82;;;14.85;;
75061;SDS011;63641;46.526;24.612;2023-12-20T01:38:01;131.52;;;17.63;;
75061;SDS011;63641;46.526;24.612;2023-12-20T01:40:27;65.85;;;17.15;;
75061;SDS011;63641;46.526;24.612;2023-12-20T01:42:58;67.15;;;16.77;;
75061;SDS011;63641;46.526;24.612;2023-12-20T01:45:28;66.57;;;15.55;;
75061;SDS011;63641;46.526;24.612;2023-12-20T01:47:55;40.45;;;16.63;;
75061;SDS011;63641;46.526;24.612;2023-12-20T01:50:23;57.67;;;16.63;;
75061;SDS011;63641;46.526;24.612;2023-12-20T01:52:52;50.75;;;16.20;;
75061;SDS011;63641;46.526;24.612;2023-12-20T01:55:24;79.25;;;16.60;;
75061;SDS011;63641;46.526;24.612;2023-12-20T01:57:52;82.32;;;17.00;;
75061;SDS011;63641;46.526;24.612;2023-12-20T02:00:19;27.50;;;14.98;;
75061;SDS011;63641;46.526;24.612;2023-12-20T02:02:50;124.18;;;16.38;;
75061;SDS011;63641;46.526;24.612;2023-12-20T02:05:19;39.22;;;15.23;;
75061;SDS011;63641;46.526;24.612;2023-12-20T02:07:46;89.43;;;15.07;;
75061;SDS011;63641;46.526;24.612;2023-12-20T02:10:13;151.90;;;18.08;;
75061;SDS011;63641;46.526;24.612;2023-12-20T02:12:42;171.75;;;17.10;;
75061;SDS011;63641;46.526;24.612;2023-12-20T02:15:09;126.40;;;18.10;;
75061;SDS011;63641;46.526;24.612;2023-12-20T02:17:36;47.42;;;14.77;;
75061;SDS011;63641;46.526;24.612;2023-12-20T02:20:05;46.85;;;15.75;;
75061;SDS011;63641;46.526;24.612;2023-12-20T02:22:35;93.47;;;16.70;;
75061;SDS011;63641;46.526;24.612;2023-12-20T02:25:02;51.78;;;16.33;;
75061;SDS011;63641;46.526;24.612;2023-12-20T02:27:30;35.90;;;16.33;;
75061;SDS011;63641;46.526;24.612;2023-12-20T02:29:57;83.05;;;17.85;;
75061;SDS011;63641;46.526;24.612;2023-12-20T02:32:24;55.30;;;17.70;;
75061;SDS011;63641;46.526;24.612;2023-12-20T02:34:55;39.17;;;18.10;;
75061;SDS011;63641;46.526;24.612;2023-12-20T02:37:23;67.28;;;17.10;;
75061;SDS011;63641;46.526;24.612;2023-12-20T02:39:50;94.50;;;17.77;;
75061;SDS011;63641;46.526;24.612;2023-12-20T02:42:17;37.33;;;17.13;;
75061;SDS011;63641;46.526;24.612;2023-12-20T02:44:44;165.98;;;22.02;;
75061;SDS011;63641;46.526;24.612;2023-12-20T02:47:10;60.45;;;17.75;;
75061;SDS011;63641;46.526;24.612;2023-12-20T02:49:37;43.05;;;17.63;;
75061;SDS011;63641;46.526;24.612;2023-12-20T02:52:04;92.68;;;19.23;;
75061;SDS011;63641;46.526;24.612;2023-12-20T02:54:31;43.60;;;16.02;;
75061;SDS011;63641;46.526;24.612;2023-12-20T02:56:58;31.05;;;15.05;;
75061;SDS011;63641;46.526;24.612;2023-12-20T02:59:25;36.25;;;15.93;;
75061;SDS011;63641;46.526;24.612;2023-12-20T03:01:52;35.33;;;14.60;;
75061;SDS011;63641;46.526;24.612;2023-12-20T03:04:19;34.50;;;15.77;;
75061;SDS011;63641;46.526;24.612;2023-12-20T03:06:45;29.15;;;14.18;;
75061;SDS011;63641;46.526;24.612;2023-12-20T03:09:12;50.20;;;16.38;;
75061;SDS011;63641;46.526;24.612;2023-12-20T03:11:40;78.78;;;16.35;;
75061;SDS011;63641;46.526;24.612;2023-12-20T03:14:06;132.80;;;17.05;;
75061;SDS011;63641;46.526;24.612;2023-12-20T03:16:33;153.75;;;18.05;;
75061;SDS011;63641;46.526;24.612;2023-12-20T03:19:03;57.83;;;16.00;;
75061;SDS011;63641;46.526;24.612;2023-12-20T03:21:30;33.67;;;16.60;;
75061;SDS011;63641;46.526;24.612;2023-12-20T03:23:57;40.78;;;16.63;;
75061;SDS011;63641;46.526;24.612;2023-12-20T03:26:24;58.15;;;16.23;;
75061;SDS011;63641;46.526;24.612;2023-12-20T03:28:50;74.35;;;15.57;;
75061;SDS011;63641;46.526;24.612;2023-12-20T03:31:18;53.13;;;15.23;;
75061;SDS011;63641;46.526;24.612;2023-12-20T03:33:46;154.85;;;18.33;;
75061;SDS011;63641;46.526;24.612;2023-12-20T03:36:13;72.57;;;16.52;;
75061;SDS011;63641;46.526;24.612;2023-12-20T03:38:43;71.10;;;16.73;;
75061;SDS011;63641;46.526;24.612;2023-12-20T03:41:11;80.85;;;16.77;;
75061;SDS011;63641;46.526;24.612;2023-12-20T03:43:38;30.52;;;18.20;;
75061;SDS011;63641;46.526;24.612;2023-12-20T03:46:05;39.17;;;17.02;;
75061;SDS011;63641;46.526;24.612;2023-12-20T03:48:32;49.55;;;18.20;;
75061;SDS011;63641;46.526;24.612;2023-12-20T03:50:58;28.08;;;16.88;;
75061;SDS011;63641;46.526;24.612;2023-12-20T03:53:25;112.68;;;18.58;;
75061;SDS011;63641;46.526;24.612;2023-12-20T03:55:52;103.68;;;17.58;;
75061;SDS011;63641;46.526;24.612;2023-12-20T03:58:19;43.33;;;16.23;;
75061;SDS011;63641;46.526;24.612;2023-12-20T04:00:46;31.55;;;16.38;;
75061;SDS011;63641;46.526;24.612;2023-12-20T04:03:13;59.67;;;17.38;;
75061;SDS011;63641;46.526;24.612;2023-12-20T04:05:40;90.22;;;16.30;;
75061;SDS011;63641;46.526;24.612;2023-12-20T04:08:07;25.52;;;15.23;;
75061;SDS011;63641;46.526;24.612;2023-12-20T04:10:35;37.55;;;16.98;;
75061;SDS011;63641;46.526;24.612;2023-12-20T04:13:04;88.88;;;17.80;;
75061;SDS011;63641;46.526;24.612;2023-12-20T04:15:31;98.72;;;16.88;;
75061;SDS011;63641;46.526;24.612;2023-12-20T04:18:14;94.18;;;16.15;;
75061;SDS011;63641;46.526;24.612;2023-12-20T04:20:41;71.20;;;16.38;;
75061;SDS011;63641;46.526;24.612;2023-12-20T04:23:08;86.03;;;16.45;;
75061;SDS011;63641;46.526;24.612;2023-12-20T04:25:35;122.25;;;16.10;;
75061;SDS011;63641;46.526;24.612;2023-12-20T04:28:02;100.70;;;16.80;;
75061;SDS011;63641;46.526;24.612;2023-12-20T04:30:29;120.53;;;16.38;;
75061;SDS011;63641;46.526;24.612;2023-12-20T04:32:56;150.98;;;16.98;;
75061;SDS011;63641;46.526;24.612;2023-12-20T04:35:23;100.50;;;15.60;;
75061;SDS011;63641;46.526;24.612;2023-12-20T04:37:50;90.53;;;16.02;;
75061;SDS011;63641;46.526;24.612;2023-12-20T04:40:17;65.85;;;15.43;;
75061;SDS011;63641;46.526;24.612;2023-12-20T04:42:44;63.50;;;15.45;;
75061;SDS011;63641;46.526;24.612;2023-12-20T04:45:11;33.80;;;16.85;;
75061;SDS011;63641;46.526;24.612;2023-12-20T04:47:41;52.47;;;15.55;;
75061;SDS011;63641;46.526;24.612;2023-12-20T04:50:08;60.45;;;16.85;;
75061;SDS011;63641;46.526;24.612;2023-12-20T04:52:36;27.02;;;15.88;;
75061;SDS011;63641;46.526;24.612;2023-12-20T04:55:03;55.65;;;15.30;;
75061;SDS011;63641;46.526;24.612;2023-12-20T04:57:34;43.38;;;17.40;;
75061;SDS011;63641;46.526;24.612;2023-12-20T05:00:01;42.03;;;16.05;;
75061;SDS011;63641;46.526;24.612;2023-12-20T05:02:32;42.92;;;17.80;;
75061;SDS011;63641;46.526;24.612;2023-12-20T05:04:59;31.02;;;15.98;;
75061;SDS011;63641;46.526;24.612;2023-12-20T05:07:26;25.55;;;15.82;;
75061;SDS011;63641;46.526;24.612;2023-12-20T05:09:53;54.55;;;17.85;;
75061;SDS011;63641;46.526;24.612;2023-12-20T05:12:20;42.55;;;16.80;;
75061;SDS011;63641;46.526;24.612;2023-12-20T05:14:46;29.67;;;15.68;;
75061;SDS011;63641;46.526;24.612;2023-12-20T05:17:13;28.42;;;15.60;;
75061;SDS011;63641;46.526;24.612;2023-12-20T05:19:40;40.47;;;15.38;;
75061;SDS011;63641;46.526;24.612;2023-12-20T05:22:07;27.88;;;15.75;;
75061;SDS011;63641;46.526;24.612;2023-12-20T05:24:34;30.85;;;15.05;;
75061;SDS011;63641;46.526;24.612;2023-12-20T05:27:01;25.27;;;15.30;;
75061;SDS011;63641;46.526;24.612;2023-12-20T05:29:28;28.08;;;15.55;;
75061;SDS011;63641;46.526;24.612;2023-12-20T05:31:54;36.10;;;17.20;;
75061;SDS011;63641;46.526;24.612;2023-12-20T05:34:21;28.63;;;17.02;;
75061;SDS011;63641;46.526;24.612;2023-12-20T05:36:48;26.73;;;17.27;;
75061;SDS011;63641;46.526;24.612;2023-12-20T05:39:15;35.78;;;16.70;;
75061;SDS011;63641;46.526;24.612;2023-12-20T05:41:42;40.70;;;17.20;;
75061;SDS011;63641;46.526;24.612;2023-12-20T05:44:09;36.47;;;17.13;;
75061;SDS011;63641;46.526;24.612;2023-12-20T05:46:36;53.58;;;15.85;;
75061;SDS011;63641;46.526;24.612;2023-12-20T05:49:03;33.00;;;17.98;;
75061;SDS011;63641;46.526;24.612;2023-12-20T05:51:31;28.50;;;16.98;;
75061;SDS011;63641;46.526;24.612;2023-12-20T05:53:58;58.15;;;18.13;;
75061;SDS011;63641;46.526;24.612;2023-12-20T05:56:25;79.28;;;17.70;;
75061;SDS011;63641;46.526;24.612;2023-12-20T05:58:52;60.22;;;16.52;;
75061;SDS011;63641;46.526;24.612;2023-12-20T06:01:18;70.72;;;18.50;;
75061;SDS011;63641;46.526;24.612;2023-12-20T06:03:45;56.47;;;16.83;;
75061;SDS011;63641;46.526;24.612;2023-12-20T06:06:12;59.35;;;17.38;;
75061;SDS011;63641;46.526;24.612;2023-12-20T06:08:42;23.17;;;16.17;;
75061;SDS011;63641;46.526;24.612;2023-12-20T06:11:10;58.85;;;16.45;;
75061;SDS011;63641;46.526;24.612;2023-12-20T06:13:37;97.80;;;17.77;;
75061;SDS011;63641;46.526;24.612;2023-12-20T06:16:05;76.43;;;16.23;;
75061;SDS011;63641;46.526;24.612;2023-12-20T06:18:35;69.97;;;15.77;;
75061;SDS011;63641;46.526;24.612;2023-12-20T06:21:03;65.22;;;17.13;;
75061;SDS011;63641;46.526;24.612;2023-12-20T06:23:31;68.70;;;16.83;;
75061;SDS011;63641;46.526;24.612;2023-12-20T06:25:57;46.00;;;15.25;;
75061;SDS011;63641;46.526;24.612;2023-12-20T06:28:24;103.22;;;17.20;;
75061;SDS011;63641;46.526;24.612;2023-12-20T06:30:51;46.13;;;15.68;;
75061;SDS011;63641;46.526;24.612;2023-12-20T06:33:21;27.05;;;16.77;;
75061;SDS011;63641;46.526;24.612;2023-12-20T06:35:48;47.67;;;15.63;;
75061;SDS011;63641;46.526;24.612;2023-12-20T06:38:17;42.17;;;16.25;;
75061;SDS011;63641;46.526;24.612;2023-12-20T06:40:44;49.58;;;20.40;;
75061;SDS011;63641;46.526;24.612;2023-12-20T06:43:12;58.65;;;22.00;;
75061;SDS011;63641;46.526;24.612;2023-12-20T06:45:57;49.78;;;23.38;;
75061;SDS011;63641;46.526;24.612;2023-12-20T06:48:25;54.03;;;19.48;;
75061;SDS011;63641;46.526;24.612;2023-12-20T06:50:51;52.38;;;20.60;;
75061;SDS011;63641;46.526;24.612;2023-12-20T06:53:18;59.45;;;19.20;;
75061;SDS011;63641;46.526;24.612;2023-12-20T06:55:45;50.22;;;19.80;;
75061;SDS011;63641;46.526;24.612;2023-12-20T06:58:12;34.10;;;22.08;;
75061;SDS011;63641;46.526;24.612;2023-12-20T07:00:39;38.28;;;18.20;;
75061;SDS011;63641;46.526;24.612;2023-12-20T07:03:06;39.38;;;20.60;;
75061;SDS011;63641;46.526;24.612;2023-12-20T07:05:33;37.20;;;20.33;;
75061;SDS011;63641;46.526;24.612;2023-12-20T07:08:00;44.17;;;20.33;;
75061;SDS011;63641;46.526;24.612;2023-12-20T07:10:27;47.17;;;19.83;;
75061;SDS011;63641;46.526;24.612;2023-12-20T07:12:54;66.80;;;19.77;;
75061;SDS011;63641;46.526;24.612;2023-12-20T07:15:22;99.35;;;20.90;;
75061;SDS011;63641;46.526;24.612;2023-12-20T07:17:51;64.68;;;20.02;;
75061;SDS011;63641;46.526;24.612;2023-12-20T07:20:18;50.58;;;19.38;;
75061;SDS011;63641;46.526;24.612;2023-12-20T07:22:45;38.03;;;19.73;;
75061;SDS011;63641;46.526;24.612;2023-12-20T07:25:12;57.50;;;20.80;;
75061;SDS011;63641;46.526;24.612;2023-12-20T07:27:39;49.50;;;20.48;;
75061;SDS011;63641;46.526;24.612;2023-12-20T07:30:10;40.97;;;19.75;;
75061;SDS011;63641;46.526;24.612;2023-12-20T07:32:37;45.63;;;18.27;;
75061;SDS011;63641;46.526;24.612;2023-12-20T07:35:04;39.00;;;17.33;;
75061;SDS011;63641;46.526;24.612;2023-12-20T07:37:32;69.00;;;19.67;;
75061;SDS011;63641;46.526;24.612;2023-12-20T07:39:59;94.68;;;19.15;;
75061;SDS011;63641;46.526;24.612;2023-12-20T07:42:26;46.03;;;17.58;;
75061;SDS011;63641;46.526;24.612;2023-12-20T07:44:52;44.60;;;18.13;;
75061;SDS011;63641;46.526;24.612;2023-12-20T07:47:21;36.13;;;17.13;;
75061;SDS011;63641;46.526;24.612;2023-12-20T07:49:51;69.68;;;16.70;;
75061;SDS011;63641;46.526;24.612;2023-12-20T07:52:18;29.20;;;16.70;;
75061;SDS011;63641;46.526;24.612;2023-12-20T07:54:45;23.40;;;15.77;;
75061;SDS011;63641;46.526;24.612;2023-12-20T07:57:12;22.10;;;14.38;;
75061;SDS011;63641;46.526;24.612;2023-12-20T07:59:39;22.83;;;15.43;;
75061;SDS011;63641;46.526;24.612;2023-12-20T08:02:06;20.80;;;15.07;;
75061;SDS011;63641;46.526;24.612;2023-12-20T08:04:33;31.83;;;18.48;;
75061;SDS011;63641;46.526;24.612;2023-12-20T08:07:00;26.55;;;17.10;;
75061;SDS011;63641;46.526;24.612;2023-12-20T08:09:27;25.55;;;16.40;;
75061;SDS011;63641;46.526;24.612;2023-12-20T08:11:54;26.30;;;16.55;;
75061;SDS011;63641;46.526;24.612;2023-12-20T08:14:21;24.35;;;17.25;;
75061;SDS011;63641;46.526;24.612;2023-12-20T08:16:47;28.25;;;18.95;;
75061;SDS011;63641;46.526;24.612;2023-12-20T08:19:14;24.67;;;16.17;;
75061;SDS011;63641;46.526;24.612;2023-12-20T08:21:41;24.52;;;16.77;;
75061;SDS011;63641;46.526;24.612;2023-12-20T08:24:08;29.08;;;17.67;;
75061;SDS011;63641;46.526;24.612;2023-12-20T08:26:35;25.15;;;16.98;;
75061;SDS011;63641;46.526;24.612;2023-12-20T08:29:02;27.63;;;17.90;;
75061;SDS011;63641;46.526;24.612;2023-12-20T08:31:29;34.70;;;20.27;;
75061;SDS011;63641;46.526;24.612;2023-12-20T08:33:56;30.73;;;18.55;;
75061;SDS011;63641;46.526;24.612;2023-12-20T08:36:23;31.63;;;17.88;;
75061;SDS011;63641;46.526;24.612;2023-12-20T08:38:50;27.00;;;17.52;;
75061;SDS011;63641;46.526;24.612;2023-12-20T08:41:17;33.40;;;19.88;;
75061;SDS011;63641;46.526;24.612;2023-12-20T08:43:44;33.90;;;21.52;;
75061;SDS011;63641;46.526;24.612;2023-12-20T08:46:11;37.60;;;20.42;;
75061;SDS011;63641;46.526;24.612;2023-12-20T08:48:39;37.00;;;20.35;;
75061;SDS011;63641;46.526;24.612;2023-12-20T08:51:06;33.97;;;20.85;;
75061;SDS011;63641;46.526;24.612;2023-12-20T08:53:35;35.42;;;22.08;;
75061;SDS011;63641;46.526;24.612;2023-12-20T08:56:02;34.00;;;20.88;;
75061;SDS011;63641;46.526;24.612;2023-12-20T08:58:29;47.20;;;26.27;;
75061;SDS011;63641;46.526;24.612;2023-12-20T09:00:56;43.28;;;24.88;;
75061;SDS011;63641;46.526;24.612;2023-12-20T09:03:24;39.22;;;22.42;;
75061;SDS011;63641;46.526;24.612;2023-12-20T09:05:51;39.95;;;24.10;;
75061;SDS011;63641;46.526;24.612;2023-12-20T09:08:18;44.78;;;25.08;;
75061;SDS011;63641;46.526;24.612;2023-12-20T09:10:45;32.55;;;20.63;;
75061;SDS011;63641;46.526;24.612;2023-12-20T09:13:12;37.55;;;22.13;;
75061;SDS011;63641;46.526;24.612;2023-12-20T09:15:39;35.80;;;22.48;;
75061;SDS011;63641;46.526;24.612;2023-12-20T09:18:06;41.35;;;24.75;;
75061;SDS011;63641;46.526;24.612;2023-12-20T09:20:33;37.97;;;24.50;;
75061;SDS011;63641;46.526;24.612;2023-12-20T09:23:00;39.80;;;26.35;;
75061;SDS011;63641;46.526;24.612;2023-12-20T09:25:27;40.80;;;24.83;;
75061;SDS011;63641;46.526;24.612;2023-12-20T09:27:55;35.17;;;25.52;;
75061;SDS011;63641;46.526;24.612;2023-12-20T09:30:22;40.78;;;24.38;;
75061;SDS011;63641;46.526;24.612;2023-12-20T09:32:53;39.00;;;23.52;;
75061;SDS011;63641;46.526;24.612;2023-12-20T09:35:21;33.00;;;23.27;;
75061;SDS011;63641;46.526;24.612;2023-12-20T09:37:49;38.45;;;23.95;;
75061;SDS011;63641;46.526;24.612;2023-12-20T09:40:17;40.75;;;26.17;;
75061;SDS011;63641;46.526;24.612;2023-12-20T09:42:52;45.10;;;29.55;;
75061;SDS011;63641;46.526;24.612;2023-12-20T09:45:23;43.30;;;29.73;;
75061;SDS011;63641;46.526;24.612;2023-12-20T09:47:53;47.53;;;30.10;;
75061;SDS011;63641;46.526;24.612;2023-12-20T09:50:21;50.20;;;29.20;;
75061;SDS011;63641;46.526;24.612;2023-12-20T09:52:50;44.75;;;29.40;;
75061;SDS011;63641;46.526;24.612;2023-12-20T09:55:18;44.95;;;28.13;;
75061;SDS011;63641;46.526;24.612;2023-12-20T09:57:46;46.58;;;30.95;;
75061;SDS011;63641;46.526;24.612;2023-12-20T10:00:15;40.72;;;29.15;;
75061;SDS011;63641;46.526;24.612;2023-12-20T10:02:50;46.38;;;29.50;;
75061;SDS011;63641;46.526;24.612;2023-12-20T10:05:27;46.15;;;30.48;;
75061;SDS011;63641;46.526;24.612;2023-12-20T10:07:56;47.67;;;32.72;;
75061;SDS011;63641;46.526;24.612;2023-12-20T10:10:23;41.75;;;28.40;;
75061;SDS011;63641;46.526;24.612;2023-12-20T10:13:03;38.65;;;25.38;;
75061;SDS011;63641;46.526;24.612;2023-12-20T10:15:32;36.42;;;26.17;;
75061;SDS011;63641;46.526;24.612;2023-12-20T10:18:03;38.35;;;25.30;;
75061;SDS011;63641;46.526;24.612;2023-12-20T10:20:30;28.20;;;20.13;;
75061;SDS011;63641;46.526;24.612;2023-12-20T10:22:58;29.45;;;20.80;;
75061;SDS011;63641;46.526;24.612;2023-12-20T10:25:27;26.60;;;20.40;;
75061;SDS011;63641;46.526;24.612;2023-12-20T10:28:13;28.88;;;21.05;;
75061;SDS011;63641;46.526;24.612;2023-12-20T10:30:43;31.20;;;20.35;;
75061;SDS011;63641;46.526;24.612;2023-12-20T10:33:11;29.83;;;20.77;;
75061;SDS011;63641;46.526;24.612;2023-12-20T10:35:38;29.40;;;22.00;;
75061;SDS011;63641;46.526;24.612;2023-12-20T10:38:10;31.15;;;21.13;;
75061;SDS011;63641;46.526;24.612;2023-12-20T10:40:40;30.60;;;20.17;;
75061;SDS011;63641;46.526;24.612;2023-12-20T10:43:07;35.50;;;23.90;;
75061;SDS011;63641;46.526;24.612;2023-12-20T10:45:35;32.47;;;23.83;;
75061;SDS011;63641;46.526;24.612;2023-12-20T10:48:03;31.95;;;24.58;;
75061;SDS011;63641;46.526;24.612;2023-12-20T10:50:31;43.17;;;29.45;;
75061;SDS011;63641;46.526;24.612;2023-12-20T10:52:58;46.33;;;31.13;;
75061;SDS011;63641;46.526;24.612;2023-12-20T10:55:25;53.42;;;33.88;;
75061;SDS011;63641;46.526;24.612;2023-12-20T10:58:00;54.65;;;33.13;;
75061;SDS011;63641;46.526;24.612;2023-12-20T11:00:28;52.45;;;32.67;;
75061;SDS011;63641;46.526;24.612;2023-12-20T11:03:00;57.55;;;33.70;;
75061;SDS011;63641;46.526;24.612;2023-12-20T11:08:28;54.33;;;33.20;;
75061;SDS011;63641;46.526;24.612;2023-12-20T11:11:08;55.65;;;32.88;;
75061;SDS011;63641;46.526;24.612;2023-12-20T11:14:01;56.63;;;34.88;;
75061;SDS011;63641;46.526;24.612;2023-12-20T11:16:38;58.47;;;36.10;;
75061;SDS011;63641;46.526;24.612;2023-12-20T11:21:46;57.20;;;37.22;;
75061;SDS011;63641;46.526;24.612;2023-12-20T11:24:15;61.33;;;36.55;;
75061;SDS011;63641;46.526;24.612;2023-12-20T11:26:46;56.72;;;35.17;;
75061;SDS011;63641;46.526;24.612;2023-12-20T11:29:34;60.40;;;36.17;;
75061;SDS011;63641;46.526;24.612;2023-12-20T11:32:02;60.45;;;36.38;;
75061;SDS011;63641;46.526;24.612;2023-12-20T11:35:00;62.67;;;34.75;;
75061;SDS011;63641;46.526;24.612;2023-12-20T11:37:47;53.65;;;35.67;;
75061;SDS011;63641;46.526;24.612;2023-12-20T11:40:15;53.63;;;34.95;;
75061;SDS011;63641;46.526;24.612;2023-12-20T11:42:50;64.18;;;37.72;;
75061;SDS011;63641;46.526;24.612;2023-12-20T11:45:19;57.65;;;36.70;;
75061;SDS011;63641;46.526;24.612;2023-12-20T11:47:49;59.22;;;35.42;;
75061;SDS011;63641;46.526;24.612;2023-12-20T11:50:17;62.15;;;36.70;;
75061;SDS011;63641;46.526;24.612;2023-12-20T11:52:45;56.30;;;37.38;;
75061;SDS011;63641;46.526;24.612;2023-12-20T11:55:12;55.33;;;35.38;;
75061;SDS011;63641;46.526;24.612;2023-12-20T11:57:39;58.30;;;36.20;;
75061;SDS011;63641;46.526;24.612;2023-12-20T12:00:06;54.45;;;35.00;;
75061;SDS011;63641;46.526;24.612;2023-12-20T12:02:34;54.22;;;36.35;;
75061;SDS011;63641;46.526;24.612;2023-12-20T12:05:01;54.78;;;35.40;;
75061;SDS011;63641;46.526;24.612;2023-12-20T12:07:33;55.05;;;34.58;;
75061;SDS011;63641;46.526;24.612;2023-12-20T12:10:00;56.28;;;35.72;;
75061;SDS011;63641;46.526;24.612;2023-12-20T12:12:27;50.28;;;35.92;;
75061;SDS011;63641;46.526;24.612;2023-12-20T12:14:54;54.20;;;34.80;;
75061;SDS011;63641;46.526;24.612;2023-12-20T12:17:23;52.65;;;34.42;;
75061;SDS011;63641;46.526;24.612;2023-12-20T12:19:49;55.35;;;35.55;;
75061;SDS011;63641;46.526;24.612;2023-12-20T12:22:17;53.58;;;34.90;;
75061;SDS011;63641;46.526;24.612;2023-12-20T12:24:46;49.88;;;36.03;;
75061;SDS011;63641;46.526;24.612;2023-12-20T12:27:13;57.00;;;37.90;;
75061;SDS011;63641;46.526;24.612;2023-12-20T12:29:40;56.17;;;37.05;;
75061;SDS011;63641;46.526;24.612;2023-12-20T12:32:25;52.30;;;35.83;;
75061;SDS011;63641;46.526;24.612;2023-12-20T12:34:52;50.47;;;35.05;;
75061;SDS011;63641;46.526;24.612;2023-12-20T12:37:19;53.25;;;36.90;;
75061;SDS011;63641;46.526;24.612;2023-12-20T12:39:46;52.05;;;34.72;;
75061;SDS011;63641;46.526;24.612;2023-12-20T12:42:13;59.00;;;36.15;;
75061;SDS011;63641;46.526;24.612;2023-12-20T12:44:40;47.40;;;33.33;;
75061;SDS011;63641;46.526;24.612;2023-12-20T12:47:06;48.65;;;35.50;;
75061;SDS011;63641;46.526;24.612;2023-12-20T12:49:34;55.00;;;35.17;;
75061;SDS011;63641;46.526;24.612;2023-12-20T12:52:01;50.28;;;34.85;;
75061;SDS011;63641;46.526;24.612;2023-12-20T12:54:29;50.25;;;34.78;;
75061;SDS011;63641;46.526;24.612;2023-12-20T12:56:56;48.20;;;32.65;;
75061;SDS011;63641;46.526;24.612;2023-12-20T12:59:24;51.22;;;34.33;;
75061;SDS011;63641;46.526;24.612;2023-12-20T13:01:51;51.45;;;36.47;;
75061;SDS011;63641;46.526;24.612;2023-12-20T13:04:19;54.20;;;37.58;;
75061;SDS011;63641;46.526;24.612;2023-12-20T13:06:46;52.03;;;35.53;;
75061;SDS011;63641;46.526;24.612;2023-12-20T13:09:13;55.88;;;37.78;;
75061;SDS011;63641;46.526;24.612;2023-12-20T13:11:41;69.80;;;41.53;;
75061;SDS011;63641;46.526;24.612;2023-12-20T13:14:08;65.18;;;42.00;;
75061;SDS011;63641;46.526;24.612;2023-12-20T13:16:37;67.97;;;43.83;;
75061;SDS011;63641;46.526;24.612;2023-12-20T13:19:04;72.65;;;44.85;;
75061;SDS011;63641;46.526;24.612;2023-12-20T13:21:31;78.18;;;46.85;;
75061;SDS011;63641;46.526;24.612;2023-12-20T13:23:58;63.38;;;42.60;;
75061;SDS011;63641;46.526;24.612;2023-12-20T13:26:25;60.03;;;41.90;;
75061;SDS011;63641;46.526;24.612;2023-12-20T13:28:53;68.43;;;43.75;;
75061;SDS011;63641;46.526;24.612;2023-12-20T13:31:20;76.03;;;46.90;;
75061;SDS011;63641;46.526;24.612;2023-12-20T13:33:48;62.45;;;45.35;;
75061;SDS011;63641;46.526;24.612;2023-12-20T13:36:15;74.35;;;46.03;;
75061;SDS011;63641;46.526;24.612;2023-12-20T13:38:42;61.33;;;44.03;;
75061;SDS011;63641;46.526;24.612;2023-12-20T13:41:10;64.50;;;41.75;;
75061;SDS011;63641;46.526;24.612;2023-12-20T13:43:37;65.35;;;42.85;;
75061;SDS011;63641;46.526;24.612;2023-12-20T13:46:04;77.57;;;47.63;;
75061;SDS011;63641;46.526;24.612;2023-12-20T13:48:31;68.63;;;46.45;;
75061;SDS011;63641;46.526;24.612;2023-12-20T13:50:58;69.30;;;40.67;;
75061;SDS011;63641;46.526;24.612;2023-12-20T13:53:25;60.55;;;41.90;;
75061;SDS011;63641;46.526;24.612;2023-12-20T13:55:52;60.65;;;40.45;;
75061;SDS011;63641;46.526;24.612;2023-12-20T13:58:19;60.00;;;39.33;;
75061;SDS011;63641;46.526;24.612;2023-12-20T14:00:46;63.92;;;40.70;;
75061;SDS011;63641;46.526;24.612;2023-12-20T14:03:13;60.47;;;38.58;;
75061;SDS011;63641;46.526;24.612;2023-12-20T14:05:40;57.10;;;37.30;;
75061;SDS011;63641;46.526;24.612;2023-12-20T14:08:07;60.20;;;36.92;;
75061;SDS011;63641;46.526;24.612;2023-12-20T14:10:34;50.25;;;33.00;;
75061;SDS011;63641;46.526;24.612;2023-12-20T14:13:01;48.58;;;33.38;;
75061;SDS011;63641;46.526;24.612;2023-12-20T14:15:28;56.30;;;33.33;;
75061;SDS011;63641;46.526;24.612;2023-12-20T14:17:55;50.65;;;32.90;;
75061;SDS011;63641;46.526;24.612;2023-12-20T14:20:22;47.83;;;32.72;;